createdAt,value
2022-08-07T00:02:36.574Z,51.21
2022-08-07T00:08:38.512Z,51.71
2022-08-07T00:11:13.052Z,51.56
2022-08-07T00:13:48.177Z,51.64
2022-08-07T00:16:17.688Z,51.92
2022-08-07T00:18:58.293Z,51.73
2022-08-07T00:21:55.354Z,51.80
2022-08-07T00:24:20.337Z,51.88
2022-08-07T00:27:06.505Z,52.13
2022-08-07T00:29:37.174Z,52.28
2022-08-07T00:32:06.788Z,52.28
2022-08-07T00:34:35.593Z,52.62
2022-08-07T00:37:05.096Z,52.94
2022-08-07T00:39:36.371Z,53.03
2022-08-07T00:42:16.221Z,53.10
2022-08-07T00:44:44.466Z,53.29
2022-08-07T00:47:15.795Z,53.07
2022-08-07T00:50:19.612Z,53.43
2022-08-07T00:52:51.672Z,53.57
2022-08-07T00:55:25.309Z,53.71
2022-08-07T00:58:13.989Z,53.80
2022-08-07T01:00:53.601Z,54.00
2022-08-07T01:03:25.457Z,53.98
2022-08-07T01:06:12.247Z,54.03
2022-08-07T01:08:43.090Z,54.14
2022-08-07T01:12:28.076Z,54.25
2022-08-07T01:14:16.550Z,54.48
2022-08-07T01:16:48.102Z,54.39
2022-08-07T01:19:22.087Z,54.31
2022-08-07T01:21:56.167Z,54.78
2022-08-07T01:24:35.018Z,54.61
2022-08-07T01:27:03.967Z,54.80
2022-08-07T01:29:34.258Z,54.72
2022-08-07T01:32:12.288Z,55.01
2022-08-07T01:34:47.425Z,55.15
2022-08-07T01:37:21.852Z,55.39
2022-08-07T01:39:53.151Z,55.58
2022-08-07T01:42:37.604Z,55.50
2022-08-07T01:45:10.108Z,55.65
2022-08-07T01:48:20.438Z,55.84
2022-08-07T01:50:37.829Z,55.97
2022-08-07T01:53:11.710Z,56.22
2022-08-07T01:55:56.613Z,56.38
2022-08-07T01:58:33.429Z,56.54
2022-08-07T02:01:58.798Z,56.80
2022-08-07T02:04:08.629Z,56.72
2022-08-07T02:06:44.065Z,57.13
2022-08-07T02:09:52.429Z,57.16
2022-08-07T02:12:18.176Z,57.79
2022-08-07T02:14:58.313Z,57.87
2022-08-07T02:17:37.281Z,58.27
2022-08-07T02:20:17.415Z,58.41
2022-08-07T02:22:57.626Z,58.18
2022-08-07T02:26:31.202Z,58.26
2022-08-07T02:28:25.763Z,58.58
2022-08-07T02:31:06.124Z,58.57
2022-08-07T02:34:03.294Z,58.84
2022-08-07T02:36:41.461Z,58.55
2022-08-07T02:39:43.610Z,59.11
2022-08-07T02:42:10.218Z,59.31
2022-08-07T02:44:48.274Z,59.31
2022-08-07T02:47:23.542Z,59.17
2022-08-07T02:50:00.512Z,59.26
2022-08-07T02:52:38.719Z,59.65
2022-08-07T02:55:28.653Z,59.98
2022-08-07T02:58:07.544Z,59.91
2022-08-07T03:00:47.062Z,59.94
2022-08-07T03:03:22.632Z,60.23
2022-08-07T03:05:55.453Z,59.94
2022-08-07T03:08:27.003Z,60.31
2022-08-07T03:11:02.391Z,60.52
2022-08-07T03:13:49.761Z,60.75
2022-08-07T03:16:27.670Z,60.99
2022-08-07T03:18:58.156Z,60.81
2022-08-07T03:21:27.435Z,60.79
2022-08-07T03:24:19.528Z,60.62
2022-08-07T03:26:58.276Z,60.75
2022-08-07T03:29:36.841Z,60.57
2022-08-07T03:32:12.988Z,60.99
2022-08-07T03:34:47.561Z,61.62
2022-08-07T03:37:37.477Z,60.93
2022-08-07T03:40:17.409Z,61.03
2022-08-07T03:42:46.791Z,61.11
2022-08-07T03:45:29.865Z,61.22
2022-08-07T03:48:09.993Z,61.79
2022-08-07T03:50:52.096Z,61.62
2022-08-07T03:54:00.526Z,61.58
2022-08-07T03:56:32.560Z,61.64
2022-08-07T03:59:09.243Z,61.91
2022-08-07T04:01:45.816Z,62.03
2022-08-07T04:04:18.026Z,61.66
2022-08-07T04:06:51.816Z,61.79
2022-08-07T04:09:24.402Z,61.67
2022-08-07T04:12:26.487Z,61.72
2022-08-07T04:14:49.108Z,61.99
2022-08-07T04:17:22.381Z,62.18
2022-08-07T04:19:55.153Z,62.09
2022-08-07T04:22:29.952Z,61.84
2022-08-07T04:25:08.809Z,61.70
2022-08-07T04:27:59.310Z,61.98
2022-08-07T04:30:39.473Z,61.49
2022-08-07T04:33:27.801Z,61.73
2022-08-07T04:35:57.904Z,61.79
2022-08-07T04:38:29.583Z,62.07
2022-08-07T04:40:59.909Z,61.83
2022-08-07T04:44:10.266Z,61.80
2022-08-07T04:47:04.800Z,61.87
2022-08-07T04:49:57.416Z,61.52
2022-08-07T04:52:35.310Z,61.65
2022-08-07T04:55:15.261Z,61.30
2022-08-07T04:58:33.727Z,61.42
2022-08-07T05:01:13.548Z,61.27
2022-08-07T05:04:07.951Z,61.00
2022-08-07T05:09:43.402Z,60.79
2022-08-07T05:12:27.008Z,60.38
2022-08-07T05:15:16.006Z,59.87
2022-08-07T05:18:00.857Z,59.08
2022-08-07T05:20:35.974Z,58.42
2022-08-07T05:23:15.807Z,56.06
2022-08-07T05:26:11.884Z,54.79
2022-08-07T05:28:40.458Z,52.80
2022-08-07T05:31:14.535Z,51.47
2022-08-07T05:34:00.950Z,50.33
2022-08-07T05:36:39.233Z,49.79
2022-08-07T05:40:13.759Z,49.29
2022-08-07T05:42:12.292Z,48.02
2022-08-07T05:45:04.249Z,47.43
2022-08-07T05:47:38.529Z,46.82
2022-08-07T05:50:26.039Z,46.22
2022-08-07T05:52:56.107Z,45.22
2022-08-07T05:56:01.864Z,44.78
2022-08-07T05:58:22.094Z,44.16
2022-08-07T06:01:11.561Z,44.24
2022-08-07T06:03:56.769Z,44.34
2022-08-07T06:06:29.893Z,43.22
2022-08-07T06:09:04.800Z,43.11
2022-08-07T06:11:38.392Z,42.54
2022-08-07T06:14:13.740Z,41.62
2022-08-07T06:16:56.429Z,41.28
2022-08-07T06:19:57.880Z,41.70
2022-08-07T06:22:28.203Z,41.05
2022-08-07T06:25:12.403Z,40.71
2022-08-07T06:27:44.288Z,40.39
2022-08-07T06:30:35.607Z,39.74
2022-08-07T06:33:19.915Z,39.69
2022-08-07T06:36:12.061Z,38.72
2022-08-07T06:38:58.469Z,37.53
2022-08-07T06:42:00.408Z,38.01
2022-08-07T06:44:50.918Z,37.79
2022-08-07T06:47:21.394Z,38.59
2022-08-07T06:49:58.284Z,38.24
2022-08-07T06:52:37.028Z,37.62
2022-08-07T06:55:34.102Z,36.88
2022-08-07T06:58:11.341Z,35.67
2022-08-07T07:00:53.066Z,36.42
2022-08-07T07:03:26.370Z,34.59
2022-08-07T07:06:11.280Z,33.63
2022-08-07T07:08:46.629Z,33.34
2022-08-07T07:12:08.338Z,33.86
2022-08-07T07:14:08.266Z,33.64
2022-08-07T07:16:49.522Z,32.11
2022-08-07T07:19:55.755Z,31.94
2022-08-07T07:22:36.513Z,31.12
2022-08-07T07:26:33.096Z,30.48
2022-08-07T07:28:03.258Z,30.60
2022-08-07T07:30:40.142Z,31.14
2022-08-07T07:33:14.452Z,29.39
2022-08-07T07:36:04.819Z,29.70
2022-08-07T07:38:36.112Z,30.48
2022-08-07T07:41:09.210Z,30.84
2022-08-07T07:44:13.652Z,30.27
2022-08-07T07:46:37.238Z,30.00
2022-08-07T07:50:36.370Z,27.87
2022-08-07T07:52:17.198Z,28.14
2022-08-07T07:54:50.611Z,27.56
2022-08-07T07:57:43.926Z,26.59
2022-08-07T08:00:29.201Z,26.21
2022-08-07T08:03:06.905Z,26.35
2022-08-07T08:05:54.749Z,26.88
2022-08-07T08:08:34.528Z,26.86
2022-08-07T08:11:08.197Z,26.15
2022-08-07T08:13:52.910Z,27.42
2022-08-07T08:16:24.963Z,26.76
2022-08-07T08:18:57.578Z,27.42
2022-08-07T08:21:55.800Z,26.54
2022-08-07T08:25:04.552Z,26.90
2022-08-07T08:27:56.475Z,25.61
2022-08-07T08:30:32.163Z,25.37
2022-08-07T08:33:15.042Z,25.68
2022-08-07T08:35:50.660Z,25.31
2022-08-07T08:38:29.965Z,26.42
2022-08-07T08:41:09.233Z,24.80
2022-08-07T08:43:56.199Z,25.45
2022-08-07T08:46:38.372Z,25.22
2022-08-07T08:49:32.832Z,24.99
2022-08-07T08:52:14.495Z,24.88
2022-08-07T08:54:50.995Z,25.24
2022-08-07T08:57:33.914Z,25.50
2022-08-07T09:00:06.855Z,24.52
2022-08-07T09:02:46.174Z,24.68
2022-08-07T09:05:36.827Z,23.77
2022-08-07T09:08:28.085Z,25.03
2022-08-07T09:11:05.537Z,24.77
2022-08-07T09:13:51.991Z,23.86
2022-08-07T09:16:30.522Z,24.16
2022-08-07T09:19:51.533Z,25.13
2022-08-07T09:24:32.713Z,25.19
2022-08-07T09:25:24.390Z,24.02
2022-08-07T09:28:02.961Z,22.84
2022-08-07T09:30:49.703Z,24.10
2022-08-07T09:33:52.614Z,23.49
2022-08-07T09:36:35.380Z,24.17
2022-08-07T09:39:53.206Z,24.30
2022-08-07T09:42:29.298Z,23.15
2022-08-07T09:47:24.425Z,22.67
2022-08-07T09:48:19.566Z,23.04
2022-08-07T09:51:01.078Z,22.70
2022-08-07T09:53:41.353Z,22.02
2022-08-07T09:56:51.424Z,21.30
2022-08-07T10:00:01.174Z,22.18
2022-08-07T10:04:06.153Z,23.83
2022-08-07T10:06:24.552Z,23.01
2022-08-07T10:11:59.904Z,21.57
2022-08-07T10:14:00.862Z,23.58
2022-08-07T10:17:02.047Z,22.22
2022-08-07T10:19:53.903Z,22.00
2022-08-07T10:22:45.395Z,22.31
2022-08-07T10:25:47.692Z,21.18
2022-08-07T10:28:39.550Z,21.57
2022-08-07T10:31:39.033Z,20.24
2022-08-07T10:34:45.137Z,21.07
2022-08-07T10:38:00.236Z,21.41
2022-08-07T10:40:22.822Z,21.30
2022-08-07T10:43:08.184Z,20.54
2022-08-07T10:45:57.483Z,20.46
2022-08-07T10:48:48.543Z,22.47
2022-08-07T10:51:39.265Z,23.10
2022-08-07T10:54:17.355Z,23.16
2022-08-07T10:57:00.081Z,22.59
2022-08-07T10:59:47.524Z,21.90
2022-08-07T11:02:32.843Z,21.64
2022-08-07T11:05:20.317Z,21.13
2022-08-07T11:08:02.599Z,21.27
2022-08-07T11:10:41.820Z,21.25
2022-08-07T11:14:45.418Z,20.33
2022-08-07T11:16:16.401Z,21.16
2022-08-07T11:18:52.186Z,20.80
2022-08-07T11:21:32.104Z,20.34
2022-08-07T11:24:08.383Z,20.45
2022-08-07T11:26:48.107Z,19.84
2022-08-07T11:29:42.818Z,19.79
2022-08-07T11:32:25.271Z,19.95
2022-08-07T11:34:58.391Z,19.71
2022-08-07T11:37:57.284Z,19.75
2022-08-07T11:40:37.117Z,18.59
2022-08-07T11:43:15.586Z,19.34
2022-08-07T11:46:00.910Z,20.14
2022-08-07T11:49:04.392Z,20.81
2022-08-07T11:51:48.714Z,20.49
2022-08-07T11:54:53.057Z,21.00
2022-08-07T11:58:00.253Z,21.47
2022-08-07T12:00:34.014Z,19.58
2022-08-07T12:03:41.554Z,19.53
2022-08-07T12:06:51.781Z,19.98
2022-08-07T12:09:34.595Z,21.08
2022-08-07T12:12:09.144Z,21.96
2022-08-07T12:14:55.360Z,22.54
2022-08-07T12:17:39.461Z,23.36
2022-08-07T12:20:29.635Z,23.80
2022-08-07T12:24:05.687Z,23.88
2022-08-07T12:26:23.318Z,23.64
2022-08-07T12:29:05.519Z,24.59
2022-08-07T12:32:02.220Z,25.12
2022-08-07T12:34:35.393Z,24.71
2022-08-07T12:37:16.956Z,24.66
2022-08-07T12:39:59.001Z,25.28
2022-08-07T12:42:32.164Z,25.44
2022-08-07T12:45:04.354Z,25.92
2022-08-07T12:47:43.961Z,25.68
2022-08-07T12:50:39.315Z,25.63
2022-08-07T12:53:22.166Z,24.73
2022-08-07T12:56:02.546Z,24.79
2022-08-07T12:58:39.699Z,24.71
2022-08-07T13:01:19.384Z,24.52
2022-08-07T13:04:13.675Z,24.56
2022-08-07T13:07:17.928Z,24.46
2022-08-07T13:10:37.867Z,23.99
2022-08-07T13:13:47.901Z,24.55
2022-08-07T13:16:17.652Z,25.02
2022-08-07T13:18:54.852Z,25.57
2022-08-07T13:21:50.303Z,25.40
2022-08-07T13:24:25.813Z,25.75
2022-08-07T13:27:05.876Z,25.47
2022-08-07T13:29:46.973Z,26.16
2022-08-07T13:32:31.652Z,25.61
2022-08-07T13:35:08.435Z,25.74
2022-08-07T13:37:55.341Z,26.00
2022-08-07T13:40:36.761Z,25.67
2022-08-07T13:43:15.065Z,25.54
2022-08-07T13:46:11.755Z,25.69
2022-08-07T13:48:39.035Z,25.45
2022-08-07T13:51:27.139Z,25.59
2022-08-07T13:54:02.118Z,25.58
2022-08-07T13:56:35.775Z,25.66
2022-08-07T13:59:13.455Z,25.44
2022-08-07T14:02:03.956Z,24.94
2022-08-07T14:04:48.888Z,25.78
2022-08-07T14:07:25.101Z,25.80
2022-08-07T14:10:21.802Z,26.05
2022-08-07T14:12:56.079Z,25.83
2022-08-07T14:15:35.342Z,25.33
2022-08-07T14:18:23.917Z,24.91
2022-08-07T14:21:20.665Z,25.15
2022-08-07T14:24:06.725Z,25.61
2022-08-07T14:26:50.580Z,25.84
2022-08-07T14:30:07.714Z,25.82
2022-08-07T14:32:14.093Z,25.74
2022-08-07T14:34:47.162Z,26.20
2022-08-07T14:37:19.535Z,25.70
2022-08-07T14:40:17.800Z,25.66
2022-08-07T14:43:54.962Z,25.70
2022-08-07T14:45:50.588Z,25.79
2022-08-07T14:48:27.872Z,25.81
2022-08-07T14:51:15.649Z,25.61
2022-08-07T14:56:42.599Z,25.92
2022-08-07T15:00:03.207Z,25.89
2022-08-07T15:02:34.124Z,25.16
2022-08-07T15:05:04.005Z,25.48
2022-08-07T15:14:34.251Z,25.41
2022-08-07T15:17:32.450Z,25.69
2022-08-07T15:20:31.900Z,24.80
2022-08-07T15:22:59.500Z,25.15
2022-08-07T15:25:51.491Z,24.73
2022-08-07T15:28:34.697Z,24.66
2022-08-07T15:31:07.358Z,26.38
2022-08-07T15:33:39.404Z,26.65
2022-08-07T15:36:12.630Z,26.55
2022-08-07T15:38:59.390Z,27.11
2022-08-07T15:42:42.320Z,26.69
2022-08-07T15:44:24.171Z,27.25
2022-08-07T15:46:58.651Z,27.43
2022-08-07T15:50:03.964Z,26.99
2022-08-07T15:52:30.448Z,26.82
2022-08-07T15:55:04.452Z,27.22
2022-08-07T15:57:48.400Z,27.29
2022-08-07T16:00:33.405Z,27.05
2022-08-07T16:03:08.489Z,26.78
2022-08-07T16:05:52.142Z,26.64
2022-08-07T16:08:32.438Z,26.35
2022-08-07T16:11:26.844Z,26.46
2022-08-07T16:14:19.154Z,26.76
2022-08-07T16:17:15.228Z,26.85
2022-08-07T16:20:34.161Z,26.30
2022-08-07T16:23:54.719Z,26.25
2022-08-07T16:26:58.847Z,26.57
2022-08-07T16:30:10.357Z,26.41
2022-08-07T16:32:46.564Z,27.01
2022-08-07T16:35:56.698Z,26.07
2022-08-07T16:39:00.566Z,26.55
2022-08-07T16:41:58.263Z,26.60
2022-08-07T16:45:14.648Z,26.63
2022-08-07T16:48:17.036Z,26.17
2022-08-07T16:51:51.754Z,26.47
2022-08-07T16:54:33.112Z,26.68
2022-08-07T16:57:15.418Z,26.62
2022-08-07T16:59:51.781Z,26.70
2022-08-07T17:02:53.004Z,26.66
2022-08-07T17:06:26.544Z,26.70
2022-08-07T17:09:08.573Z,26.59
2022-08-07T17:12:04.874Z,26.86
2022-08-07T17:14:36.115Z,26.79
2022-08-07T17:17:15.224Z,26.88
2022-08-07T17:20:02.655Z,27.25
2022-08-07T17:22:46.680Z,27.47
2022-08-07T17:25:19.422Z,27.16
2022-08-07T17:27:59.785Z,27.77
2022-08-07T17:30:36.573Z,27.48
2022-08-07T17:34:10.311Z,27.99
2022-08-07T17:36:21.281Z,27.96
2022-08-07T17:39:10.463Z,27.67
2022-08-07T17:42:03.415Z,28.06
2022-08-07T17:44:49.955Z,28.37
2022-08-07T17:47:38.486Z,28.15
2022-08-07T17:50:19.288Z,28.23
2022-08-07T17:52:53.534Z,28.38
2022-08-07T17:56:00.902Z,28.43
2022-08-07T17:58:30.694Z,28.59
2022-08-07T18:01:20.942Z,28.18
2022-08-07T18:04:16.051Z,28.27
2022-08-07T18:07:19.221Z,28.43
2022-08-07T18:10:04.326Z,28.81
2022-08-07T18:12:49.448Z,28.94
2022-08-07T18:15:24.322Z,29.05
2022-08-07T18:18:46.422Z,28.81
2022-08-07T18:21:27.453Z,29.13
2022-08-07T18:24:07.320Z,29.35
2022-08-07T18:26:59.283Z,29.48
2022-08-07T18:30:06.736Z,29.74
2022-08-07T18:33:17.106Z,30.20
2022-08-07T18:35:55.814Z,30.37
2022-08-07T18:38:57.834Z,30.38
2022-08-07T18:41:44.832Z,30.67
2022-08-07T18:44:32.572Z,30.69
2022-08-07T18:47:21.192Z,30.80
2022-08-07T18:50:31.746Z,31.04
2022-08-07T18:53:14.671Z,31.37
2022-08-07T18:55:57.684Z,31.60
2022-08-07T18:58:51.855Z,31.87
2022-08-07T19:02:31.780Z,32.11
2022-08-07T19:04:57.790Z,32.00
2022-08-07T19:07:35.028Z,32.34
2022-08-07T19:10:18.224Z,32.64
2022-08-07T19:13:10.240Z,34.13
2022-08-07T19:16:04.612Z,33.38
2022-08-07T19:18:46.483Z,33.32
2022-08-07T19:21:43.932Z,33.41
2022-08-07T19:24:31.043Z,33.61
2022-08-07T19:28:57.030Z,33.92
2022-08-07T19:31:03.258Z,34.25
2022-08-07T19:32:51.277Z,34.40
2022-08-07T19:35:24.522Z,34.77
2022-08-07T19:38:04.558Z,34.94
2022-08-07T19:40:49.280Z,34.77
2022-08-07T19:43:50.029Z,35.12
2022-08-07T19:46:17.842Z,35.39
2022-08-07T19:48:54.063Z,35.66
2022-08-07T19:51:52.782Z,35.59
2022-08-07T19:54:44.031Z,35.63
2022-08-07T19:58:00.140Z,35.76
2022-08-07T20:00:03.532Z,35.77
2022-08-07T20:02:52.152Z,36.43
2022-08-07T20:05:28.682Z,35.97
2022-08-07T20:08:00.595Z,36.09
2022-08-07T20:12:43.001Z,36.15
2022-08-07T20:15:22.090Z,35.91
2022-08-07T20:18:01.808Z,36.11
2022-08-07T20:20:35.936Z,36.22
2022-08-07T20:23:23.434Z,35.98
2022-08-07T20:26:09.972Z,35.92
2022-08-07T20:28:42.586Z,36.06
2022-08-07T20:31:21.474Z,35.87
2022-08-07T20:33:56.386Z,36.02
2022-08-07T20:36:28.342Z,36.06
2022-08-07T20:39:00.404Z,35.75
2022-08-07T20:41:38.435Z,35.67
2022-08-07T20:44:13.019Z,36.01
2022-08-07T20:46:44.845Z,36.50
2022-08-07T20:49:58.181Z,36.22
2022-08-07T20:52:13.799Z,36.33
2022-08-07T20:54:53.056Z,36.72
2022-08-07T20:57:25.779Z,37.05
2022-08-07T21:00:07.581Z,37.36
2022-08-07T21:03:04.556Z,38.05
2022-08-07T21:05:52.837Z,38.45
2022-08-07T21:08:34.989Z,39.00
2022-08-07T21:11:11.951Z,39.28
2022-08-07T21:14:20.243Z,39.74
2022-08-07T21:16:56.559Z,39.80
2022-08-07T21:19:32.552Z,40.21
2022-08-07T21:22:19.988Z,40.08
2022-08-07T21:25:04.829Z,39.83
2022-08-07T21:27:53.769Z,39.87
2022-08-07T21:30:30.540Z,40.00
2022-08-07T21:33:12.969Z,39.84
2022-08-07T21:36:05.133Z,39.82
2022-08-07T21:38:44.600Z,39.90
2022-08-07T21:41:20.689Z,39.81
2022-08-07T21:43:56.044Z,39.83
2022-08-07T21:46:33.223Z,40.15
2022-08-07T21:49:15.071Z,40.21
2022-08-07T21:51:58.863Z,41.29
2022-08-07T21:54:48.206Z,40.37
2022-08-07T21:57:44.590Z,40.74
2022-08-07T22:00:22.905Z,40.70
2022-08-07T22:03:03.640Z,40.91
2022-08-07T22:05:48.115Z,41.09
2022-08-07T22:08:20.976Z,41.35
2022-08-07T22:10:55.297Z,41.62
2022-08-07T22:13:50.532Z,41.36
2022-08-07T22:16:42.361Z,41.67
2022-08-07T22:19:18.180Z,41.82
2022-08-07T22:22:04.911Z,42.18
2022-08-07T22:24:55.554Z,42.44
2022-08-07T22:28:03.197Z,42.37
2022-08-07T22:30:22.003Z,43.04
2022-08-07T22:33:03.769Z,42.21
2022-08-07T22:35:41.362Z,42.30
2022-08-07T22:38:26.084Z,42.47
2022-08-07T22:41:02.839Z,42.77
2022-08-07T22:43:39.759Z,42.88
2022-08-07T22:47:02.244Z,42.92
2022-08-07T22:49:54.238Z,43.13
2022-08-07T22:52:51.340Z,43.42
2022-08-07T22:55:34.234Z,43.55
2022-08-07T22:58:38.174Z,43.58
2022-08-07T23:01:26.987Z,43.76
2022-08-07T23:04:30.668Z,43.53
2022-08-07T23:07:30.156Z,43.32
2022-08-07T23:10:36.450Z,43.22
2022-08-07T23:13:29.369Z,43.46
2022-08-07T23:16:48.267Z,43.30
2022-08-07T23:19:16.456Z,43.39
2022-08-07T23:21:57.338Z,43.51
2022-08-07T23:24:43.639Z,44.23
2022-08-07T23:27:34.504Z,43.91
2022-08-07T23:30:39.126Z,43.99
2022-08-07T23:34:34.063Z,44.02
2022-08-07T23:36:08.686Z,44.29
2022-08-07T23:38:57.495Z,44.16
2022-08-07T23:42:01.417Z,44.60
2022-08-07T23:44:45.405Z,44.46
2022-08-07T23:47:46.794Z,44.46
2022-08-07T23:50:36.682Z,44.66
2022-08-07T23:53:51.477Z,45.35
2022-08-07T23:56:31.149Z,45.09
